Time;durP1;ratioP1;P1;durP2;ratioP2;P2;SDS_P1;SDS_P2;PMS_P1;PMS_P2;Temp;Humidity;BMP_temperature;BMP_pressure;BME280_temperature;BME280_humidity;BME280_pressure;Samples;Min_cycle;Max_cycle;Signal;HPM_P1;HPM_P2
2022/06/10 00:00:47;;;;;;;11.88;8.52;;;;;;;13.61;72.04;100935.97;10433991;28;20049;-80
2022/06/10 00:05:50;;;;;;;13.50;8.20;;;;;;;13.56;72.30;100946.31;10419770;28;20059;-79
2022/06/10 00:10:55;;;;;;;11.80;6.95;;;;;;;13.55;72.57;100931.97;10416445;28;20056;-79
2022/06/10 00:16:00;;;;;;;11.15;8.27;;;;;;;13.58;71.96;100939.78;10422277;28;21881;-79
2022/06/10 00:21:07;;;;;;;12.30;7.50;;;;;;;13.50;72.15;100939.59;10420079;28;21823;-79
2022/06/10 00:26:12;;;;;;;11.55;7.50;;;;;;;13.46;72.29;100952.47;10422005;28;20075;-79
2022/06/10 00:31:18;;;;;;;13.35;7.53;;;;;;;13.44;71.83;100954.47;10411363;28;20076;-79
2022/06/10 00:36:26;;;;;;;13.75;7.28;;;;;;;13.39;72.05;100953.97;10411024;28;20044;-79
2022/06/10 00:41:29;;;;;;;;;;;;;;;13.35;73.40;100944.38;10411221;28;21155;-80
2022/06/10 00:46:36;;;;;;;16.38;11.95;;;;;;;13.38;73.34;100944.16;10411184;28;19929;-79
2022/06/10 00:51:43;;;;;;;18.27;9.90;;;;;;;13.32;72.90;100951.88;10412789;28;20169;-79
2022/06/10 00:56:50;;;;;;;14.55;9.02;;;;;;;13.24;72.43;100953.38;10415172;28;20087;-79
2022/06/10 01:01:58;;;;;;;15.90;8.30;;;;;;;13.12;72.15;100956.25;10412348;28;21592;-78
2022/06/10 01:07:02;;;;;;;16.23;9.25;;;;;;;13.00;72.13;100967.06;10403580;28;20085;-78
2022/06/10 01:12:18;;;;;;;18.08;9.10;;;;;;;12.99;72.55;100965.34;10405402;28;20418;-78
2022/06/10 01:17:35;;;;;;;17.70;10.02;;;;;;;13.00;72.53;100960.78;10407366;28;20503;-78
2022/06/10 01:23:15;;;;;;;9.18;8.23;;;;;;;12.97;72.28;100961.94;10410481;28;20049;-78
2022/06/10 01:28:28;;;;;;;12.23;9.48;;;;;;;12.86;72.25;100961.06;10398870;28;20604;-79
2022/06/10 01:33:58;;;;;;;15.63;10.10;;;;;;;12.75;72.91;100961.94;10407833;28;20111;-78
2022/06/10 01:39:05;;;;;;;16.65;11.52;;;;;;;12.78;72.85;100959.00;10423279;28;20060;-79
2022/06/10 01:44:17;;;;;;;18.95;14.00;;;;;;;12.78;73.58;100956.31;10421020;28;20123;-79
2022/06/10 01:49:26;;;;;;;19.35;15.57;;;;;;;12.80;73.67;100955.19;10422096;28;20067;-79
2022/06/10 01:54:36;;;;;;;18.98;14.15;;;;;;;12.73;73.65;100961.25;10403324;28;20061;-79
2022/06/10 01:59:44;;;;;;;19.15;12.95;;;;;;;12.64;73.93;100954.72;10423250;28;20062;-79
2022/06/10 02:04:52;;;;;;;18.13;14.07;;;;;;;12.60;74.06;100961.38;10433862;28;20049;-79
2022/06/10 02:09:59;;;;;;;19.00;13.30;;;;;;;12.53;73.98;100958.31;10434347;28;20063;-78
2022/06/10 02:15:08;;;;;;;19.23;15.52;;;;;;;12.46;74.19;100958.94;10453794;28;20053;-79
2022/06/10 02:20:20;;;;;;;20.70;12.43;;;;;;;12.46;73.88;100964.31;10469255;28;20052;-78
2022/06/10 02:25:27;;;;;;;14.10;12.57;;;;;;;12.38;73.64;100968.47;10462908;28;20041;-79
2022/06/10 02:30:36;;;;;;;16.60;12.30;;;;;;;12.38;73.68;100973.00;10448901;28;20040;-79
2022/06/10 02:35:46;;;;;;;21.45;17.73;;;;;;;12.35;74.04;100975.94;10455220;28;20037;-79
2022/06/10 02:40:54;;;;;;;23.10;18.52;;;;;;;12.37;74.62;100968.59;10456695;28;20057;-79
2022/06/10 02:46:03;;;;;;;22.02;15.90;;;;;;;12.33;74.92;100980.59;10446868;28;20061;-79
2022/06/10 02:51:07;;;;;;;23.75;16.48;;;;;;;12.36;74.73;100977.66;10447084;28;20619;-78
2022/06/10 02:56:18;;;;;;;29.20;21.13;;;;;;;12.34;75.04;100984.97;10424474;28;21218;-79
2022/06/10 03:01:30;;;;;;;25.30;20.10;;;;;;;12.34;75.37;100984.97;10417732;28;20066;-80
2022/06/10 03:06:44;;;;;;;19.40;15.60;;;;;;;12.40;74.91;100989.91;10421797;28;20064;-78
2022/06/10 03:11:59;;;;;;;17.40;15.10;;;;;;;12.36;74.56;100991.97;10423699;28;20053;-78
2022/06/10 03:17:15;;;;;;;24.63;18.80;;;;;;;12.31;75.03;100996.00;10419950;28;20684;-79
2022/06/10 03:22:32;;;;;;;24.65;17.27;;;;;;;12.29;74.90;100995.28;10414537;28;20060;-78
2022/06/10 03:27:41;;;;;;;28.48;17.05;;;;;;;12.33;75.01;100999.44;10423533;28;20588;-79
2022/06/10 03:32:50;;;;;;;19.90;15.13;;;;;;;12.36;74.67;100996.50;10411306;28;20053;-79
2022/06/10 03:37:56;;;;;;;15.45;13.68;;;;;;;12.30;73.96;101011.31;10420563;28;20095;-80
2022/06/10 03:43:03;;;;;;;29.90;18.73;;;;;;;12.28;74.41;101009.69;10422813;28;20057;-79
2022/06/10 03:48:06;;;;;;;26.60;21.00;;;;;;;12.29;74.87;101015.00;10425979;28;20049;-80
2022/06/10 03:53:15;;;;;;;28.50;18.70;;;;;;;12.32;74.70;101020.16;10424638;28;20567;-79
2022/06/10 03:58:18;;;;;;;26.45;20.20;;;;;;;12.36;75.00;101018.06;10420143;28;20053;-79
2022/06/10 04:03:21;;;;;;;26.05;18.73;;;;;;;12.38;75.00;101022.34;10417703;28;20053;-79
2022/06/10 04:08:31;;;;;;;31.92;21.95;;;;;;;12.42;75.39;101024.81;10411548;28;20049;-78
2022/06/10 04:13:34;;;;;;;34.05;21.30;;;;;;;12.50;75.38;101034.00;10419457;28;20040;-79
2022/06/10 04:18:37;;;;;;;29.17;20.33;;;;;;;12.56;75.23;101030.84;10410825;28;20399;-79
2022/06/10 04:23:41;;;;;;;25.73;18.50;;;;;;;12.62;75.21;101037.56;10418500;28;20037;-79
2022/06/10 04:28:44;;;;;;;30.63;20.40;;;;;;;12.71;74.96;101041.38;10410368;28;20045;-80
2022/06/10 04:33:47;;;;;;;28.15;19.90;;;;;;;12.76;74.67;101037.31;10425925;28;20071;-78
2022/06/10 04:38:52;;;;;;;26.85;19.30;;;;;;;12.91;74.83;101046.00;10431400;28;20049;-79
2022/06/10 04:43:55;;;;;;;23.45;18.65;;;;;;;13.02;74.91;101043.28;10399313;28;20053;-78
2022/06/10 04:48:59;;;;;;;28.45;19.73;;;;;;;13.18;74.58;101047.47;10393353;28;20045;-79
2022/06/10 04:54:04;;;;;;;23.88;19.13;;;;;;;13.32;74.20;101059.81;10451488;28;20057;-78
2022/06/10 04:59:07;;;;;;;26.70;19.35;;;;;;;13.43;74.16;101055.28;10419670;28;20045;-77
2022/06/10 05:04:10;;;;;;;29.17;19.48;;;;;;;13.51;73.83;101051.94;10415094;28;20053;-78
2022/06/10 05:09:14;;;;;;;;;;;;;;;13.61;73.57;101062.84;10415507;28;20122;-78
2022/06/10 05:14:17;;;;;;;26.63;17.33;;;;;;;13.70;73.76;101059.38;10417451;28;19929;-78
2022/06/10 05:19:19;;;;;;;24.15;17.10;;;;;;;13.81;73.02;101063.88;10413061;28;20055;-79
2022/06/10 05:24:24;;;;;;;;;;;;;;;13.82;72.86;101057.47;10419453;28;20045;-79
2022/06/10 05:29:28;;;;;;;21.58;15.95;;;;;;;13.85;72.43;101068.00;10410755;28;19931;-79
2022/06/10 05:34:46;;;;;;;18.02;12.75;;;;;;;14.00;73.04;101064.03;10414653;28;20053;-79
2022/06/10 05:39:51;;;;;;;15.00;9.52;;;;;;;14.19;71.86;101076.81;10408180;28;20067;-78
2022/06/10 05:44:54;;;;;;;11.48;10.07;;;;;;;14.54;71.98;101071.13;10406693;28;20061;-79
2022/06/10 05:49:59;;;;;;;16.75;10.88;;;;;;;14.70;71.20;101065.22;10406953;28;20648;-79
2022/06/10 05:55:06;;;;;;;16.98;10.40;;;;;;;14.69;71.66;101070.75;10402291;28;20468;-78
2022/06/10 06:00:15;;;;;;;22.73;13.70;;;;;;;14.74;71.81;101072.06;10401328;28;20080;-79
2022/06/10 06:05:20;;;;;;;15.70;11.18;;;;;;;15.01;71.66;101067.94;10410675;28;20045;-79
2022/06/10 06:10:27;;;;;;;16.63;10.23;;;;;;;15.17;71.17;101060.16;10411356;28;20907;-79
2022/06/10 06:15:30;;;;;;;15.98;11.93;;;;;;;15.38;70.94;101070.91;10419250;28;20171;-78
2022/06/10 06:20:33;;;;;;;14.60;10.98;;;;;;;15.70;69.44;101067.97;10415195;28;20049;-78
2022/06/10 06:25:37;;;;;;;16.65;10.73;;;;;;;15.99;66.11;101074.38;10405570;28;20053;-78
2022/06/10 06:30:40;;;;;;;13.63;9.32;;;;;;;16.17;63.70;101083.50;10437879;28;20049;-78
2022/06/10 06:35:50;;;;;;;12.13;7.40;;;;;;;16.35;61.95;101081.81;10450159;28;20119;-78
2022/06/10 06:40:55;;;;;;;10.90;6.38;;;;;;;16.48;60.18;101084.22;10416114;28;20119;-78
2022/06/10 06:45:57;;;;;;;11.93;5.90;;;;;;;16.98;59.10;101094.78;10429838;28;20037;-78
2022/06/10 06:51:00;;;;;;;10.00;6.20;;;;;;;17.24;59.54;101086.81;10440161;28;20052;-79
2022/06/10 06:56:06;;;;;;;11.48;6.18;;;;;;;16.86;60.01;101093.22;10412923;28;20079;-79
2022/06/10 07:01:09;;;;;;;10.82;6.18;;;;;;;16.62;60.21;101092.88;10425261;28;20055;-78
2022/06/10 07:06:12;;;;;;;8.85;5.63;;;;;;;16.99;60.91;101091.03;10424036;28;20049;-78
2022/06/10 07:11:17;;;;;;;14.38;6.55;;;;;;;16.72;59.97;101104.56;10428564;28;20223;-78
2022/06/10 07:16:20;;;;;;;14.65;6.32;;;;;;;17.37;58.07;101099.19;10408751;28;20139;-78
2022/06/10 07:21:23;;;;;;;12.32;7.50;;;;;;;19.51;53.73;101092.50;10380686;28;20096;-79
2022/06/10 07:26:27;;;;;;;11.27;6.63;;;;;;;21.86;47.00;101093.34;10393321;28;20111;-77
2022/06/10 07:31:30;;;;;;;9.98;6.13;;;;;;;23.35;43.55;101083.53;10406707;28;20508;-78
2022/06/10 07:36:33;;;;;;;14.48;7.70;;;;;;;24.11;41.49;101089.44;10406185;28;20128;-77
2022/06/10 07:47:01;;;;;;;8.75;5.55;;;;;;;23.75;41.35;101090.31;10398229;28;20053;-77
2022/06/10 07:52:06;;;;;;;9.60;6.65;;;;;;;23.21;42.52;101094.31;10393719;28;20060;-78
2022/06/10 07:57:11;;;;;;;10.90;5.68;;;;;;;21.38;46.81;101107.09;10413398;28;20056;-78
2022/06/10 08:02:14;;;;;;;15.00;5.80;;;;;;;20.04;50.43;101093.97;10424957;28;20076;-78
2022/06/10 08:07:18;;;;;;;13.80;5.85;;;;;;;20.13;51.33;101084.81;10411987;28;20179;-78
2022/06/10 08:12:22;;;;;;;14.48;5.22;;;;;;;20.77;50.33;101093.09;10404616;28;20105;-77
2022/06/10 08:17:25;;;;;;;8.70;3.72;;;;;;;20.75;49.44;101088.84;10412710;28;20049;-77
2022/06/10 08:22:35;;;;;;;14.85;3.65;;;;;;;20.33;48.46;101082.59;10408345;28;20033;-78
2022/06/10 08:27:40;;;;;;;9.55;2.95;;;;;;;20.22;47.78;101087.53;10405358;28;20049;-77
2022/06/10 08:32:43;;;;;;;7.95;2.47;;;;;;;20.12;48.37;101093.97;10394808;28;20049;-78
2022/06/10 08:37:50;;;;;;;8.40;2.17;;;;;;;19.85;47.66;101086.13;10379684;28;20159;-77
2022/06/10 08:43:02;;;;;;;5.90;1.73;;;;;;;19.02;48.30;101089.59;10383509;28;20053;-79
2022/06/10 08:48:17;;;;;;;6.50;1.88;;;;;;;19.15;48.14;101094.59;10422558;28;20052;-79
2022/06/10 08:53:50;;;;;;;10.65;2.42;;;;;;;19.22;49.70;101093.75;10414635;28;20117;-79
2022/06/10 08:58:59;;;;;;;;;;;;;;;19.22;50.88;101096.47;10434674;28;20076;-78
2022/06/10 09:04:09;;;;;;;7.78;2.60;;;;;;;18.98;49.71;101096.38;10402504;28;19928;-77
2022/06/10 09:09:14;;;;;;;6.90;2.45;;;;;;;19.24;48.59;101102.63;10398996;28;20563;-78
2022/06/10 09:14:21;;;;;;;8.68;2.10;;;;;;;19.87;48.84;101100.44;10413461;28;20049;-78
2022/06/10 09:19:31;;;;;;;9.70;1.98;;;;;;;19.39;48.18;101108.31;10406615;28;20049;-79
2022/06/10 09:24:38;;;;;;;7.95;2.28;;;;;;;19.27;49.50;101101.44;10409494;28;20103;-79
2022/06/10 09:29:42;;;;;;;6.30;2.00;;;;;;;19.71;47.84;101103.13;10403679;28;20057;-79
2022/06/10 09:34:57;;;;;;;6.60;1.95;;;;;;;19.94;49.53;101117.84;10423972;28;20061;-79
2022/06/10 09:45:38;;;;;;;9.20;2.63;;;;;;;19.39;49.48;101127.38;10388963;28;20045;-79
2022/06/10 09:50:49;;;;;;;10.43;2.90;;;;;;;20.33;48.18;101109.88;10397928;28;20050;-79
2022/06/10 09:56:06;;;;;;;11.70;2.80;;;;;;;20.66;46.38;101115.31;10432718;28;20095;-78
2022/06/10 10:01:25;;;;;;;5.75;2.20;;;;;;;20.75;46.10;101111.53;10413942;28;20106;-80
2022/06/10 10:06:36;;;;;;;5.85;1.77;;;;;;;20.71;45.67;101120.25;10383913;28;20122;-79
2022/06/10 10:11:46;;;;;;;4.32;1.20;;;;;;;20.29;46.43;101118.53;10382342;28;20053;-78
2022/06/10 10:17:05;;;;;;;7.05;1.48;;;;;;;20.77;47.67;101114.09;10418849;28;20057;-79
2022/06/10 10:22:30;;;;;;;5.60;1.33;;;;;;;20.63;47.55;101117.53;10401853;28;20417;-80
2022/06/10 10:27:35;;;;;;;6.10;1.60;;;;;;;21.05;47.54;101103.63;10398164;28;20669;-80
2022/06/10 10:32:44;;;;;;;5.10;1.17;;;;;;;21.20;45.81;101106.47;10408465;28;20094;-79
2022/06/10 10:37:54;;;;;;;3.17;1.15;;;;;;;21.10;46.90;101098.50;10403109;28;20059;-80
2022/06/10 10:42:59;;;;;;;2.75;1.25;;;;;;;20.65;47.33;101102.69;10405566;28;20053;-79
2022/06/10 10:48:15;;;;;;;8.05;1.90;;;;;;;20.45;48.71;101095.88;10404546;28;20502;-78
2022/06/10 10:53:25;;;;;;;4.80;1.70;;;;;;;20.04;48.39;101107.63;10405349;28;20045;-78
2022/06/10 10:58:31;;;;;;;5.78;1.58;;;;;;;20.27;48.40;101112.41;10401259;28;20068;-78
2022/06/10 11:03:44;;;;;;;4.47;1.83;;;;;;;21.13;47.19;101111.81;10401922;28;20044;-78
2022/06/10 11:08:57;;;;;;;7.68;1.63;;;;;;;20.77;48.02;101120.41;10428311;28;20060;-77
2022/06/10 11:14:03;;;;;;;4.57;1.70;;;;;;;21.07;45.39;101106.22;10420718;28;20045;-78
2022/06/10 11:19:19;;;;;;;4.68;1.30;;;;;;;21.39;46.14;101097.88;10399890;28;20060;-80
2022/06/10 11:24:27;;;;;;;4.07;0.98;;;;;;;21.59;45.83;101098.28;10397381;28;20044;-79
2022/06/10 11:29:30;;;;;;;2.67;0.80;;;;;;;21.97;45.81;101103.88;10397705;28;20073;-77
2022/06/10 11:34:43;;;;;;;3.65;1.00;;;;;;;22.04;44.48;101093.03;10404950;28;20048;-80
2022/06/10 11:39:50;;;;;;;3.90;1.20;;;;;;;20.88;46.40;101097.34;10406035;28;20210;-79
2022/06/10 11:45:03;;;;;;;4.43;1.50;;;;;;;21.73;45.07;101084.88;10401364;28;20049;-79
2022/06/10 11:50:15;;;;;;;5.75;1.60;;;;;;;21.78;45.73;101086.06;10403907;28;20053;-79
2022/06/10 11:55:20;;;;;;;5.22;1.30;;;;;;;22.03;45.51;101073.03;10410917;28;20102;-79
2022/06/10 12:00:32;;;;;;;3.50;1.80;;;;;;;22.57;45.49;101055.63;10395720;28;21303;-78
2022/06/10 12:05:48;;;;;;;3.42;1.63;;;;;;;23.33;43.79;101058.19;10414168;28;20104;-79
2022/06/10 12:10:57;;;;;;;4.72;1.33;;;;;;;23.21;43.60;101047.72;10397785;28;20072;-79
2022/06/10 12:16:00;;;;;;;9.15;1.60;;;;;;;24.02;42.33;101046.69;10418036;28;20056;-80
2022/06/10 12:21:06;;;;;;;4.72;1.50;;;;;;;23.42;42.26;101057.00;10415966;28;20170;-79
2022/06/10 12:26:22;;;;;;;4.07;1.70;;;;;;;22.68;45.56;101051.59;10421205;28;20056;-79
2022/06/10 12:31:39;;;;;;;5.43;1.75;;;;;;;22.63;44.05;101034.91;10408642;28;20056;-79
2022/06/10 12:36:48;;;;;;;5.00;1.40;;;;;;;22.51;45.18;101037.22;10408454;28;20441;-80
2022/06/10 12:41:57;;;;;;;3.90;1.50;;;;;;;23.85;42.05;101026.94;10387922;28;20167;-79
2022/06/10 12:47:03;;;;;;;4.85;1.73;;;;;;;24.20;42.54;101025.13;10405635;28;20053;-80
2022/06/10 12:52:36;;;;;;;3.00;2.03;;;;;;;24.89;41.19;101015.25;10390612;28;20052;-80
2022/06/10 12:57:41;;;;;;;4.97;1.85;;;;;;;23.79;42.97;101023.06;10397789;28;20115;-79
2022/06/10 13:02:44;;;;;;;3.33;1.73;;;;;;;24.52;40.77;101020.97;10369559;28;20056;-79
2022/06/10 13:07:52;;;;;;;4.40;1.88;;;;;;;24.25;41.86;101008.06;10412302;28;20333;-79
2022/06/10 13:13:12;;;;;;;5.95;1.88;;;;;;;25.46;41.59;101010.41;10407651;28;21323;-79
2022/06/10 13:18:29;;;;;;;6.28;1.65;;;;;;;24.81;40.78;101032.75;10393696;28;20111;-79
2022/06/10 13:24:03;;;;;;;4.03;1.23;;;;;;;23.04;44.07;101021.56;10397138;28;20045;-80
2022/06/10 13:29:13;;;;;;;4.75;1.60;;;;;;;22.28;45.56;101027.16;10403737;28;20211;-78
2022/06/10 13:34:22;;;;;;;1.98;1.30;;;;;;;22.55;46.46;101016.66;10406357;28;20119;-80
2022/06/10 13:39:31;;;;;;;4.78;1.40;;;;;;;22.61;45.98;101004.09;10392947;28;20100;-79
2022/06/10 13:44:37;;;;;;;5.80;1.45;;;;;;;22.27;45.87;101021.84;10397050;28;20187;-80
2022/06/10 13:49:45;;;;;;;5.43;1.30;;;;;;;23.04;44.72;101001.50;10386307;28;20042;-78
2022/06/10 13:54:49;;;;;;;4.85;1.50;;;;;;;23.80;44.20;101000.06;10439804;28;20063;-78
2022/06/10 13:59:58;;;;;;;3.72;1.40;;;;;;;22.60;46.17;101003.25;10404676;28;20469;-80
2022/06/10 14:05:02;;;;;;;5.15;1.70;;;;;;;22.34;46.68;100995.47;10384666;28;21203;-79
2022/06/10 14:10:18;;;;;;;3.47;1.20;;;;;;;22.27;46.47;100997.22;10410785;28;21234;-80
2022/06/10 14:15:24;;;;;;;6.18;1.75;;;;;;;22.56;46.17;100996.44;10409750;28;20085;-79
2022/06/10 14:20:30;;;;;;;5.90;1.55;;;;;;;22.91;46.83;100989.34;10417655;28;20052;-79
2022/06/10 14:25:36;;;;;;;6.32;1.50;;;;;;;26.13;42.03;100992.09;10386087;28;20690;-80
2022/06/10 14:30:51;;;;;;;3.88;1.77;;;;;;;25.89;39.67;100994.44;10427077;28;20579;-80
2022/06/10 14:36:09;;;;;;;4.43;1.45;;;;;;;25.01;42.36;100988.84;10416338;28;20258;-78
2022/06/10 14:41:22;;;;;;;6.28;2.55;;;;;;;23.97;44.49;101000.66;10432357;28;20187;-80
2022/06/10 14:46:26;;;;;;;7.95;2.38;;;;;;;23.97;44.10;100986.06;10376238;28;20101;-79
2022/06/10 14:51:35;;;;;;;4.97;1.80;;;;;;;23.76;44.76;100989.69;10414244;28;20040;-80
2022/06/10 14:56:42;;;;;;;5.10;1.73;;;;;;;23.82;45.24;101005.38;10424090;28;20057;-80
2022/06/10 15:01:45;;;;;;;5.03;1.35;;;;;;;22.85;46.03;101000.22;10411018;28;20494;-81
2022/06/10 15:06:54;;;;;;;3.60;1.42;;;;;;;24.19;44.22;100990.50;10405601;28;20053;-78
2022/06/10 15:12:11;;;;;;;2.78;1.65;;;;;;;24.49;44.41;100991.16;10415173;28;20139;-79
2022/06/10 15:17:15;;;;;;;6.22;1.70;;;;;;;24.44;45.16;100977.19;10405093;28;20140;-79
2022/06/10 15:22:23;;;;;;;4.22;1.70;;;;;;;25.38;41.68;100975.69;10387300;28;20127;-81
2022/06/10 15:27:28;;;;;;;4.20;1.77;;;;;;;24.65;43.44;100964.41;10399967;28;20092;-78
2022/06/10 15:32:30;;;;;;;4.32;2.17;;;;;;;24.44;42.66;100965.34;10432078;28;20111;-79
2022/06/10 15:42:56;;;;;;;3.78;1.70;;;;;;;24.67;43.79;100957.66;10418550;28;20114;-79
2022/06/10 15:47:59;;;;;;;5.05;1.90;;;;;;;23.97;43.87;100956.78;10380913;28;20077;-80
2022/06/10 15:53:02;;;;;;;3.67;1.80;;;;;;;23.11;44.41;100959.47;10382122;28;20158;-77
2022/06/10 15:58:07;;;;;;;6.65;1.88;;;;;;;24.96;42.39;100940.03;10383722;28;20057;-80
2022/06/10 16:03:14;;;;;;;4.85;1.98;;;;;;;24.19;43.39;100946.59;10419238;28;20052;-80
2022/06/10 16:08:17;;;;;;;4.40;1.80;;;;;;;24.73;41.67;100947.75;10335431;28;20124;-78
2022/06/10 16:13:25;;;;;;;5.82;1.98;;;;;;;25.65;40.30;100948.28;10387541;28;20099;-79
2022/06/10 16:18:30;;;;;;;3.30;1.70;;;;;;;24.25;42.06;100945.78;10379041;28;20115;-79
2022/06/10 16:23:36;;;;;;;4.38;1.95;;;;;;;24.01;44.06;100946.25;10375200;28;20049;-78
2022/06/10 16:28:44;;;;;;;3.15;2.13;;;;;;;23.18;45.45;100934.91;10387747;28;20571;-80
2022/06/10 16:33:47;;;;;;;5.47;1.92;;;;;;;23.72;44.67;100939.84;10396220;28;20064;-79
2022/06/10 16:38:50;;;;;;;4.53;2.33;;;;;;;23.05;45.26;100935.56;10382777;28;20052;-78
2022/06/10 16:43:56;;;;;;;5.22;2.30;;;;;;;23.17;46.00;100935.94;10418272;28;21338;-79
2022/06/10 16:48:59;;;;;;;3.72;1.77;;;;;;;22.74;45.75;100941.31;10385997;28;20122;-78
2022/06/10 16:54:02;;;;;;;5.10;1.98;;;;;;;22.51;46.44;100933.19;10415480;28;20053;-79
2022/06/10 16:59:07;;;;;;;3.35;2.40;;;;;;;22.08;47.22;100943.94;10360382;28;20057;-78
2022/06/10 17:04:13;;;;;;;4.55;2.38;;;;;;;22.46;47.45;100936.53;10359358;28;20095;-78
2022/06/10 17:09:16;;;;;;;6.18;2.75;;;;;;;22.57;48.07;100934.31;10333251;28;20045;-77
2022/06/10 17:14:26;;;;;;;7.57;2.20;;;;;;;22.71;46.40;100933.50;10355055;28;20699;-79
2022/06/10 17:19:30;;;;;;;3.33;2.03;;;;;;;23.00;46.57;100929.81;10370020;28;20053;-80
2022/06/10 17:24:33;;;;;;;4.30;2.20;;;;;;;22.58;47.66;100930.56;10381063;28;20443;-79
2022/06/10 17:29:39;;;;;;;4.10;1.85;;;;;;;22.49;47.08;100936.16;10380215;28;20053;-78
2022/06/10 17:34:42;;;;;;;6.63;1.98;;;;;;;22.30;46.89;100931.22;10430203;28;21310;-80
2022/06/10 17:39:45;;;;;;;3.22;1.75;;;;;;;22.19;47.77;100942.59;10420954;28;20049;-79
2022/06/10 17:44:50;;;;;;;4.72;1.92;;;;;;;22.15;47.67;100941.28;10420965;28;21222;-80
2022/06/10 17:49:55;;;;;;;4.15;2.00;;;;;;;22.09;47.71;100945.63;10399583;28;20045;-80
2022/06/10 17:54:59;;;;;;;2.58;1.70;;;;;;;21.88;48.08;100938.97;10412221;28;20352;-80
2022/06/10 18:00:12;;;;;;;4.70;2.00;;;;;;;21.63;48.46;100941.03;10378112;28;20518;-78
2022/06/10 18:05:18;;;;;;;8.05;2.25;;;;;;;21.68;48.42;100944.06;10382834;28;20076;-80
2022/06/10 18:10:21;;;;;;;3.00;1.70;;;;;;;21.34;49.00;100947.28;10399345;28;20068;-80
2022/06/10 18:15:27;;;;;;;4.93;1.83;;;;;;;21.52;49.01;100936.00;10398993;28;20479;-77
2022/06/10 18:20:30;;;;;;;4.25;1.60;;;;;;;21.58;48.76;100939.91;10404645;28;20171;-78
2022/06/10 18:25:33;;;;;;;3.55;2.22;;;;;;;21.53;48.91;100939.59;10404646;28;20076;-78
2022/06/10 18:30:40;;;;;;;5.18;1.60;;;;;;;21.50;49.25;100939.97;10390564;28;20057;-78
2022/06/10 18:35:46;;;;;;;5.20;1.95;;;;;;;21.42;49.38;100935.44;10383286;28;21213;-78
2022/06/10 18:41:02;;;;;;;7.38;2.08;;;;;;;21.38;48.97;100925.88;10401765;28;20063;-78
2022/06/10 18:46:16;;;;;;;5.55;1.92;;;;;;;21.35;49.44;100934.44;10415045;28;20049;-77
2022/06/10 18:51:22;;;;;;;3.60;1.90;;;;;;;21.31;49.36;100941.28;10399446;28;20060;-78
2022/06/10 18:56:29;;;;;;;7.60;2.30;;;;;;;21.12;50.44;100945.38;10419098;28;20052;-77
2022/06/10 19:01:36;;;;;;;6.47;3.08;;;;;;;21.17;50.63;100932.00;10401913;28;20090;-78
2022/06/10 19:06:39;;;;;;;3.42;2.00;;;;;;;20.97;50.66;100935.16;10393510;28;20045;-77
2022/06/10 19:11:43;;;;;;;6.03;2.45;;;;;;;21.14;50.63;100930.47;10411558;28;20045;-78
2022/06/10 19:16:50;;;;;;;4.88;1.95;;;;;;;21.18;52.30;100934.56;10410831;28;20163;-77
2022/06/10 19:21:55;;;;;;;6.57;2.13;;;;;;;21.09;52.93;100937.50;10404520;28;20053;-78
2022/06/10 19:27:00;;;;;;;4.60;2.00;;;;;;;21.01;52.67;100924.75;10385850;28;20050;-77
2022/06/10 19:32:08;;;;;;;3.83;2.60;;;;;;;21.02;52.23;100926.44;10401655;28;20041;-78
2022/06/10 19:37:18;;;;;;;4.88;2.50;;;;;;;21.10;52.24;100941.97;10438876;28;20036;-76
2022/06/10 19:42:24;;;;;;;6.10;2.28;;;;;;;21.08;53.04;100936.66;10453670;28;20132;-77
2022/06/10 19:47:33;;;;;;;3.67;2.20;;;;;;;20.96;53.78;100941.66;10400849;28;20127;-77
2022/06/10 19:52:36;;;;;;;5.95;2.28;;;;;;;20.89;54.17;100937.09;10386719;28;20064;-76
2022/06/10 19:57:38;;;;;;;3.40;2.40;;;;;;;20.83;53.64;100937.81;10384976;28;20050;-78
2022/06/10 20:02:43;;;;;;;7.97;3.15;;;;;;;20.83;53.71;100938.66;10395209;28;20053;-77
2022/06/10 20:07:47;;;;;;;4.18;3.55;;;;;;;20.80;54.71;100939.00;10406842;28;20269;-77
2022/06/10 20:12:50;;;;;;;12.40;5.95;;;;;;;20.75;54.72;100938.69;10401467;28;20052;-77
2022/06/10 20:17:55;;;;;;;5.28;3.00;;;;;;;20.78;53.86;100943.78;10404095;28;20060;-77
2022/06/10 20:23:00;;;;;;;6.63;2.90;;;;;;;20.78;53.84;100941.06;10421422;28;20049;-79
2022/06/10 20:28:13;;;;;;;6.70;2.35;;;;;;;20.67;53.88;100947.78;10438203;28;20120;-79
2022/06/10 20:33:28;;;;;;;5.35;2.28;;;;;;;20.61;54.06;100934.00;10414611;28;20065;-80
2022/06/10 20:38:34;;;;;;;5.20;2.42;;;;;;;20.54;54.59;100934.72;10436588;28;20049;-79
2022/06/10 20:43:39;;;;;;;4.30;2.00;;;;;;;20.41;54.40;100937.13;10417251;28;20052;-77
2022/06/10 20:48:50;;;;;;;7.80;2.28;;;;;;;20.37;54.84;100934.91;10431297;28;20065;-78
2022/06/10 20:53:58;;;;;;;4.43;2.10;;;;;;;20.34;54.93;100933.41;10432244;28;20049;-79
2022/06/10 20:59:01;;;;;;;6.82;2.42;;;;;;;20.33;54.90;100932.56;10437652;28;20050;-79
2022/06/10 21:09:35;;;;;;;4.65;2.70;;;;;;;20.29;55.14;100924.84;10449974;28;20057;-77
2022/06/10 21:14:42;;;;;;;5.40;2.42;;;;;;;20.29;55.12;100925.69;10437053;28;20049;-78
2022/06/10 21:19:55;;;;;;;4.40;2.22;;;;;;;20.29;55.21;100922.13;10417116;28;21156;-76
2022/06/10 21:24:59;;;;;;;7.35;3.10;;;;;;;20.26;55.58;100925.19;10465112;28;20056;-77
2022/06/10 21:30:03;;;;;;;6.10;2.90;;;;;;;20.19;55.66;100919.59;10439215;28;20057;-78
2022/06/10 21:35:22;;;;;;;5.45;2.63;;;;;;;20.13;56.16;100918.44;10432140;28;20073;-77
2022/06/10 21:40:26;;;;;;;7.72;3.58;;;;;;;20.09;56.21;100922.50;10427914;28;20056;-77
2022/06/10 21:45:31;;;;;;;4.40;2.80;;;;;;;20.05;56.48;100915.72;10410813;28;20109;-78
2022/06/10 21:50:44;;;;;;;6.50;2.50;;;;;;;20.05;56.76;100920.34;10438379;28;20087;-77
2022/06/10 21:55:51;;;;;;;4.05;2.42;;;;;;;20.05;56.94;100925.78;10440272;28;20074;-77
2022/06/10 22:00:59;;;;;;;5.32;2.63;;;;;;;20.06;56.76;100922.03;10454952;28;20093;-77
2022/06/10 22:06:31;;;;;;;5.63;2.78;;;;;;;20.03;56.86;100925.94;10450544;28;20147;-78
2022/06/10 22:11:37;;;;;;;6.00;2.38;;;;;;;19.99;56.51;100929.19;10446548;28;20073;-78
2022/06/10 22:16:45;;;;;;;4.97;2.30;;;;;;;19.93;56.57;100925.28;10422832;28;20045;-78
2022/06/10 22:21:54;;;;;;;3.83;2.65;;;;;;;19.92;56.61;100929.03;10428623;28;20076;-78
2022/06/10 22:26:58;;;;;;;5.50;2.50;;;;;;;19.88;56.60;100931.25;10415728;28;20123;-78
2022/06/10 22:32:01;;;;;;;6.47;2.33;;;;;;;19.92;56.42;100929.03;10410388;28;20048;-77
2022/06/10 22:37:08;;;;;;;3.40;2.22;;;;;;;19.91;56.15;100935.50;10448635;28;20057;-78
2022/06/10 22:42:11;;;;;;;2.95;2.50;;;;;;;19.88;56.25;100928.53;10410702;28;20061;-78
2022/06/10 22:47:19;;;;;;;2.22;2.03;;;;;;;19.79;56.69;100928.69;10417450;28;20044;-78
2022/06/10 22:52:27;;;;;;;5.78;2.22;;;;;;;19.72;56.91;100928.56;10417788;28;20048;-78
2022/06/10 22:57:34;;;;;;;4.30;2.38;;;;;;;19.70;56.79;100929.75;10431194;28;20041;-78
2022/06/10 23:02:41;;;;;;;3.53;2.20;;;;;;;19.63;56.82;100922.22;10411052;28;20049;-78
2022/06/10 23:07:49;;;;;;;4.60;2.40;;;;;;;19.64;56.89;100918.50;10414909;28;20048;-78
2022/06/10 23:12:52;;;;;;;5.63;2.30;;;;;;;19.65;56.65;100911.16;10427430;28;20045;-78
2022/06/10 23:17:57;;;;;;;5.97;2.20;;;;;;;19.64;56.53;100915.78;10419249;28;20045;-78
2022/06/10 23:23:04;;;;;;;5.00;2.03;;;;;;;19.63;56.45;100914.06;10412033;28;20773;-78
2022/06/10 23:28:10;;;;;;;4.35;2.05;;;;;;;19.61;56.27;100907.06;10418310;28;20274;-78
2022/06/10 23:33:13;;;;;;;4.85;2.25;;;;;;;19.56;56.14;100907.59;10418810;28;20053;-78
2022/06/10 23:38:21;;;;;;;4.28;2.13;;;;;;;19.66;56.00;100907.41;10431500;28;20395;-78
2022/06/10 23:43:27;;;;;;;6.88;2.00;;;;;;;19.65;56.11;100911.16;10418130;28;20052;-78
2022/06/10 23:53:52;;;;;;;3.72;2.00;;;;;;;19.63;55.84;100907.75;10432753;28;20700;-78